Time;durP1;ratioP1;P1;durP2;ratioP2;P2;SDS_P1;SDS_P2;PMS_P1;PMS_P2;Temp;Humidity;BMP_temperature;BMP_pressure;BME280_temperature;BME280_humidity;BME280_pressure;Samples;Min_cycle;Max_cycle;Signal;HPM_P1;HPM_P2
2021/03/14 00:01:42;;;;;;;0.40;0.40;;;4.80;99.90;;;;;;5072497;28;20208;-68
2021/03/14 00:04:07;;;;;;;0.40;0.40;;;4.80;99.90;;;;;;5072792;28;20255;-68
2021/03/14 00:06:33;;;;;;;0.30;0.30;;;4.80;99.90;;;;;;5071885;28;20272;-67
2021/03/14 00:08:58;;;;;;;0.30;0.30;;;4.80;99.90;;;;;;5090416;28;20180;-69
2021/03/14 00:11:24;;;;;;;0.30;0.30;;;4.80;99.90;;;;;;5093441;28;20549;-68
2021/03/14 00:13:50;;;;;;;0.30;0.20;;;4.80;99.90;;;;;;5081442;28;20176;-69
2021/03/14 00:16:15;;;;;;;0.30;0.30;;;4.80;99.90;;;;;;5072677;28;20193;-67
2021/03/14 00:18:43;;;;;;;0.30;0.30;;;4.90;99.90;;;;;;5072634;28;20267;-68
2021/03/14 00:21:09;;;;;;;0.40;0.40;;;4.90;99.90;;;;;;5072676;28;20230;-68
2021/03/14 00:23:36;;;;;;;0.30;0.30;;;4.90;99.90;;;;;;5071453;28;20606;-68
2021/03/14 00:26:03;;;;;;;0.40;0.40;;;5.00;99.90;;;;;;5072408;28;20271;-68
2021/03/14 00:28:29;;;;;;;0.40;0.40;;;5.00;99.90;;;;;;5075348;28;20173;-68
2021/03/14 00:30:55;;;;;;;0.30;0.30;;;5.00;99.90;;;;;;5076280;28;20315;-68
2021/03/14 00:33:21;;;;;;;0.63;0.63;;;5.00;99.90;;;;;;5076506;28;20264;-69
2021/03/14 00:35:47;;;;;;;0.30;0.30;;;5.10;99.90;;;;;;5075352;28;20710;-68
2021/03/14 00:38:12;;;;;;;0.30;0.30;;;5.10;99.90;;;;;;5076345;28;20498;-68
2021/03/14 00:40:39;;;;;;;0.30;0.30;;;5.00;99.90;;;;;;5076241;28;20204;-69
2021/03/14 00:43:10;;;;;;;0.30;0.30;;;5.00;99.90;;;;;;5075961;28;20283;-68
2021/03/14 00:45:37;;;;;;;0.30;0.30;;;4.90;99.90;;;;;;5075684;28;20184;-69
2021/03/14 00:48:04;;;;;;;0.30;0.30;;;5.00;99.90;;;;;;5058353;28;20180;-69
2021/03/14 00:50:41;;;;;;;0.30;0.30;;;4.90;99.90;;;;;;5075744;28;20169;-69
2021/03/14 00:53:07;;;;;;;0.30;0.30;;;4.90;99.90;;;;;;5076149;28;20515;-68
2021/03/14 00:55:33;;;;;;;0.30;0.30;;;4.90;99.90;;;;;;5075229;28;20197;-69
2021/03/14 00:57:59;;;;;;;0.35;0.35;;;4.90;99.90;;;;;;5075950;28;20262;-68
2021/03/14 01:00:25;;;;;;;0.30;0.30;;;4.80;99.90;;;;;;5075269;28;20212;-69
2021/03/14 01:02:51;;;;;;;0.40;0.40;;;4.80;99.90;;;;;;5057962;28;20561;-68
2021/03/14 01:05:17;;;;;;;0.30;0.30;;;4.70;99.90;;;;;;5075130;28;20442;-68
2021/03/14 01:07:42;;;;;;;0.40;0.40;;;4.70;99.90;;;;;;5075830;28;20515;-69
2021/03/14 01:10:09;;;;;;;0.40;0.40;;;4.60;99.90;;;;;;5075412;28;20948;-68
2021/03/14 01:12:37;;;;;;;0.30;0.30;;;4.70;99.90;;;;;;5075835;28;20161;-68
2021/03/14 01:15:04;;;;;;;0.30;0.30;;;4.60;99.90;;;;;;5074781;28;20169;-68
2021/03/14 01:17:29;;;;;;;0.30;0.30;;;4.60;99.90;;;;;;5075759;28;20196;-68
2021/03/14 01:19:55;;;;;;;0.30;0.30;;;4.60;99.90;;;;;;5075113;28;20647;-68
2021/03/14 01:22:20;;;;;;;0.90;0.90;;;4.60;99.90;;;;;;5075198;28;20200;-69
2021/03/14 01:24:46;;;;;;;0.37;0.37;;;4.50;99.90;;;;;;5074711;28;20200;-69
2021/03/14 01:27:12;;;;;;;0.30;0.30;;;4.60;99.90;;;;;;5075351;28;20251;-68
2021/03/14 01:29:39;;;;;;;0.30;0.30;;;4.60;99.90;;;;;;5075301;28;20218;-69
2021/03/14 01:32:05;;;;;;;0.40;0.40;;;4.60;99.90;;;;;;5057451;28;20180;-68
2021/03/14 01:34:31;;;;;;;0.30;0.30;;;4.50;99.90;;;;;;5074715;28;20184;-68
2021/03/14 01:36:57;;;;;;;0.30;0.30;;;4.50;99.90;;;;;;5074788;28;20253;-68
2021/03/14 01:39:22;;;;;;;0.40;0.40;;;4.50;99.90;;;;;;5074297;28;20169;-69
2021/03/14 01:41:48;;;;;;;0.30;0.30;;;4.50;99.90;;;;;;5075025;28;20736;-69
2021/03/14 01:44:14;;;;;;;0.30;0.30;;;4.50;99.90;;;;;;5056511;28;20175;-70
2021/03/14 01:46:40;;;;;;;0.30;0.30;;;4.50;99.90;;;;;;5074895;28;20552;-69
2021/03/14 01:49:05;;;;;;;0.30;0.30;;;4.50;99.90;;;;;;5074751;28;20169;-68
2021/03/14 01:51:32;;;;;;;0.30;0.30;;;4.50;99.90;;;;;;5074563;28;20415;-68
2021/03/14 01:53:59;;;;;;;0.30;0.30;;;4.50;99.90;;;;;;5074723;28;20175;-69
2021/03/14 01:56:25;;;;;;;0.30;0.20;;;4.50;99.90;;;;;;5074389;28;20196;-69
2021/03/14 01:58:51;;;;;;;0.30;0.30;;;4.50;99.90;;;;;;5074498;28;20172;-69
2021/03/14 02:01:16;;;;;;;0.30;0.30;;;4.50;99.90;;;;;;5074323;28;20195;-69
2021/03/14 02:03:42;;;;;;;0.30;0.30;;;4.40;99.90;;;;;;5056548;28;20177;-70
2021/03/14 02:06:08;;;;;;;0.40;0.40;;;4.50;99.90;;;;;;5074077;28;20192;-69
2021/03/14 02:08:34;;;;;;;0.43;0.43;;;4.50;99.90;;;;;;5056498;28;20183;-69
2021/03/14 02:11:00;;;;;;;0.40;0.40;;;4.50;99.90;;;;;;5074361;28;20173;-69
2021/03/14 02:13:37;;;;;;;0.33;0.33;;;4.50;99.90;;;;;;5056704;28;20230;-69
2021/03/14 02:16:15;;;;;;;0.30;0.20;;;4.50;99.90;;;;;;5073799;28;20443;-69
2021/03/14 02:18:43;;;;;;;0.30;0.30;;;4.50;99.90;;;;;;5056623;28;20195;-69
2021/03/14 02:21:11;;;;;;;0.30;0.30;;;4.50;99.90;;;;;;5073577;28;20180;-68
2021/03/14 02:23:45;;;;;;;0.30;0.20;;;4.50;99.90;;;;;;5074078;28;20609;-70
2021/03/14 02:26:13;;;;;;;0.30;0.30;;;4.50;99.90;;;;;;5073142;28;20195;-69
2021/03/14 02:28:40;;;;;;;0.40;0.40;;;4.50;99.90;;;;;;5074169;28;20173;-69
2021/03/14 02:31:07;;;;;;;0.30;0.30;;;4.50;99.90;;;;;;5074132;28;20172;-69
2021/03/14 02:33:35;;;;;;;0.30;0.30;;;4.50;99.90;;;;;;5074187;28;20171;-69
2021/03/14 02:36:04;;;;;;;0.40;0.40;;;4.50;99.90;;;;;;5073233;28;20203;-69
2021/03/14 02:38:30;;;;;;;0.30;0.30;;;4.50;99.90;;;;;;5073916;28;20173;-69
2021/03/14 02:40:56;;;;;;;0.30;0.30;;;4.50;99.90;;;;;;5073355;28;20177;-69
2021/03/14 02:43:24;;;;;;;0.35;0.35;;;4.50;99.90;;;;;;5074236;28;20207;-69
2021/03/14 02:45:52;;;;;;;0.40;0.40;;;4.50;99.90;;;;;;5073172;28;20550;-69
2021/03/14 02:48:19;;;;;;;0.32;0.32;;;4.40;99.90;;;;;;5074099;28;20211;-70
2021/03/14 02:50:46;;;;;;;0.30;0.30;;;4.40;99.90;;;;;;5073176;28;20180;-71
2021/03/14 02:53:12;;;;;;;0.30;0.30;;;4.40;99.90;;;;;;5073839;28;20195;-69
2021/03/14 02:55:38;;;;;;;0.40;0.40;;;4.30;99.90;;;;;;5073141;28;20196;-69
2021/03/14 02:58:04;;;;;;;0.30;0.30;;;4.30;99.90;;;;;;5073875;28;20215;-71
2021/03/14 03:00:33;;;;;;;0.30;0.30;;;4.30;99.90;;;;;;5073162;28;20415;-71
2021/03/14 03:03:02;;;;;;;0.30;0.30;;;4.30;99.90;;;;;;5073725;28;20184;-70
2021/03/14 03:05:27;;;;;;;0.30;0.30;;;4.30;99.90;;;;;;5072722;28;20228;-70
2021/03/14 03:07:56;;;;;;;0.40;0.40;;;4.30;99.90;;;;;;5055569;28;20207;-70
2021/03/14 03:10:28;;;;;;;0.30;0.30;;;4.20;99.90;;;;;;5072779;28;20501;-70
2021/03/14 03:12:57;;;;;;;0.30;0.30;;;4.30;99.90;;;;;;5073492;28;20276;-70
2021/03/14 03:15:23;;;;;;;0.30;0.30;;;4.30;99.90;;;;;;5072662;28;20283;-70
2021/03/14 03:17:49;;;;;;;0.30;0.30;;;4.30;99.90;;;;;;5073593;28;20184;-69
2021/03/14 03:20:16;;;;;;;0.30;0.30;;;4.30;99.90;;;;;;5073005;28;20233;-70
2021/03/14 03:22:42;;;;;;;0.30;0.30;;;4.30;99.90;;;;;;5073366;28;20223;-69
2021/03/14 03:25:10;;;;;;;0.30;0.30;;;4.30;99.90;;;;;;5054470;28;20220;-69
2021/03/14 03:27:37;;;;;;;0.40;0.40;;;4.30;99.90;;;;;;5073368;28;20256;-68
2021/03/14 03:30:09;;;;;;;0.30;0.30;;;4.30;99.90;;;;;;5072984;28;20176;-68
2021/03/14 03:32:35;;;;;;;0.30;0.30;;;4.30;99.90;;;;;;5073177;28;20712;-69
2021/03/14 03:35:01;;;;;;;0.38;0.38;;;4.30;99.90;;;;;;5072507;28;20230;-70
2021/03/14 03:37:27;;;;;;;0.40;0.40;;;4.30;99.90;;;;;;5073436;28;20512;-69
2021/03/14 03:39:53;;;;;;;0.30;0.30;;;4.30;99.90;;;;;;5072987;28;20184;-69
2021/03/14 03:42:23;;;;;;;0.30;0.30;;;4.30;99.90;;;;;;5073223;28;20193;-70
2021/03/14 03:44:50;;;;;;;0.40;0.40;;;4.30;99.90;;;;;;5072187;28;20172;-70
2021/03/14 03:47:16;;;;;;;0.30;0.30;;;4.30;99.90;;;;;;5055254;28;20238;-69
2021/03/14 03:49:46;;;;;;;0.40;0.40;;;4.30;99.90;;;;;;5072844;28;20218;-68
2021/03/14 03:52:15;;;;;;;0.30;0.30;;;4.30;99.90;;;;;;5072992;28;20195;-70
2021/03/14 03:54:42;;;;;;;0.30;0.30;;;4.30;99.90;;;;;;5072259;28;20173;-69
2021/03/14 03:57:08;;;;;;;0.30;0.20;;;4.30;99.90;;;;;;5038540;28;20605;-70
2021/03/14 03:59:37;;;;;;;0.40;0.40;;;4.30;99.90;;;;;;5072773;28;20173;-70
2021/03/14 04:02:04;;;;;;;0.30;0.30;;;4.30;99.90;;;;;;5065373;28;20691;-69
2021/03/14 04:04:33;;;;;;;0.30;0.30;;;4.30;99.90;;;;;;5076624;28;20181;-70
2021/03/14 04:07:00;;;;;;;0.38;0.38;;;4.30;99.90;;;;;;5076857;28;20180;-70
2021/03/14 04:09:26;;;;;;;0.40;0.40;;;4.30;99.90;;;;;;5076727;28;20223;-69
2021/03/14 04:11:53;;;;;;;0.40;0.40;;;4.30;99.90;;;;;;5076371;28;20177;-70
2021/03/14 04:14:20;;;;;;;0.30;0.30;;;4.30;99.90;;;;;;5079446;28;20552;-71
2021/03/14 04:16:47;;;;;;;0.30;0.30;;;4.30;99.90;;;;;;5097240;28;20188;-70
2021/03/14 04:19:20;;;;;;;0.40;0.40;;;4.20;99.90;;;;;;5095804;28;20518;-69
2021/03/14 04:21:47;;;;;;;0.30;0.30;;;4.30;99.90;;;;;;5077524;28;20201;-70
2021/03/14 04:24:16;;;;;;;0.30;0.30;;;4.30;99.90;;;;;;5074879;28;20173;-70
2021/03/14 04:26:43;;;;;;;0.30;0.30;;;4.30;99.90;;;;;;5074801;28;20192;-69
2021/03/14 04:29:10;;;;;;;0.30;0.20;;;4.20;99.90;;;;;;5076516;28;20210;-70
2021/03/14 04:31:48;;;;;;;0.30;0.30;;;4.20;99.90;;;;;;5076362;28;20172;-70
2021/03/14 04:34:16;;;;;;;0.30;0.30;;;4.30;99.90;;;;;;5075621;28;20180;-70
2021/03/14 04:36:43;;;;;;;0.30;0.30;;;4.20;99.90;;;;;;5076487;28;20265;-69
2021/03/14 04:39:09;;;;;;;0.30;0.20;;;4.20;99.90;;;;;;5076241;28;20172;-69
2021/03/14 04:41:36;;;;;;;0.30;0.30;;;4.20;99.90;;;;;;5076396;28;20527;-70
2021/03/14 04:44:04;;;;;;;0.30;0.30;;;4.20;99.90;;;;;;5076098;28;20504;-70
2021/03/14 04:46:31;;;;;;;0.30;0.30;;;4.20;99.90;;;;;;5074934;28;20201;-70
2021/03/14 04:48:57;;;;;;;0.30;0.30;;;4.20;99.90;;;;;;5075490;28;20213;-70
2021/03/14 04:51:25;;;;;;;0.30;0.30;;;4.20;99.90;;;;;;5076368;28;20172;-70
2021/03/14 04:53:52;;;;;;;0.30;0.30;;;4.20;99.90;;;;;;5075565;28;20586;-69
2021/03/14 04:56:18;;;;;;;0.30;0.30;;;4.20;99.90;;;;;;5075980;28;20188;-70
2021/03/14 04:58:47;;;;;;;0.30;0.30;;;4.20;99.90;;;;;;5074848;28;20224;-69
2021/03/14 05:01:15;;;;;;;0.30;0.30;;;4.30;99.90;;;;;;5075646;28;20192;-70
2021/03/14 05:03:46;;;;;;;0.30;0.30;;;4.30;99.90;;;;;;5057029;28;20739;-70
2021/03/14 05:06:16;;;;;;;0.40;0.40;;;4.30;99.90;;;;;;5057851;28;20279;-71
2021/03/14 05:08:43;;;;;;;0.30;0.30;;;4.30;99.90;;;;;;5057656;28;20752;-70
2021/03/14 05:11:09;;;;;;;0.30;0.30;;;4.30;99.90;;;;;;5075317;28;20217;-70
2021/03/14 05:13:36;;;;;;;0.40;0.40;;;4.30;99.90;;;;;;5056662;28;20177;-70
2021/03/14 05:16:02;;;;;;;0.30;0.30;;;4.40;99.90;;;;;;5074965;28;20461;-71
2021/03/14 05:18:28;;;;;;;0.30;0.30;;;4.30;99.90;;;;;;5075778;28;20177;-69
2021/03/14 05:20:55;;;;;;;0.30;0.30;;;4.30;99.90;;;;;;5075286;28;20176;-70
2021/03/14 05:23:21;;;;;;;0.30;0.30;;;4.30;99.90;;;;;;5075164;28;20813;-69
2021/03/14 05:25:50;;;;;;;0.30;0.30;;;4.30;99.90;;;;;;5056886;28;20554;-70
2021/03/14 05:28:19;;;;;;;0.40;0.40;;;4.20;99.90;;;;;;5075798;28;20496;-71
2021/03/14 05:30:45;;;;;;;0.30;0.30;;;4.30;99.90;;;;;;5074568;28;20168;-74
2021/03/14 05:33:11;;;;;;;0.40;0.40;;;4.30;99.90;;;;;;5075332;28;20176;-71
2021/03/14 05:35:37;;;;;;;0.40;0.40;;;4.30;99.90;;;;;;5056651;28;20947;-71
2021/03/14 05:38:03;;;;;;;0.40;0.40;;;4.30;99.90;;;;;;5075219;28;20461;-71
2021/03/14 05:40:29;;;;;;;0.30;0.30;;;4.30;99.90;;;;;;5075185;28;20184;-70
2021/03/14 05:42:57;;;;;;;0.30;0.30;;;4.30;99.90;;;;;;5074867;28;20242;-69
2021/03/14 05:45:23;;;;;;;0.40;0.40;;;4.30;99.90;;;;;;5074514;28;20674;-70
2021/03/14 05:47:50;;;;;;;0.30;0.30;;;4.30;99.90;;;;;;5074673;28;20212;-70
2021/03/14 05:50:19;;;;;;;0.30;0.30;;;4.30;99.90;;;;;;5057680;28;20172;-70
2021/03/14 05:52:45;;;;;;;0.50;0.50;;;4.30;99.90;;;;;;5073550;28;20229;-69
2021/03/14 05:55:15;;;;;;;0.40;0.40;;;4.30;99.90;;;;;;5074016;28;20275;-70
2021/03/14 05:57:49;;;;;;;0.30;0.28;;;4.30;99.90;;;;;;5075283;28;20191;-71
2021/03/14 06:00:28;;;;;;;0.30;0.28;;;4.30;99.90;;;;;;5074745;28;20539;-70
2021/03/14 06:02:59;;;;;;;0.40;0.40;;;4.30;99.90;;;;;;5074990;28;20192;-70
2021/03/14 06:05:30;;;;;;;0.30;0.28;;;4.30;99.90;;;;;;5074234;28;20199;-68
2021/03/14 06:07:57;;;;;;;0.30;0.30;;;4.30;99.90;;;;;;5074716;28;20222;-70
2021/03/14 06:10:23;;;;;;;0.30;0.30;;;4.40;99.90;;;;;;5074733;28;20625;-70
2021/03/14 06:12:50;;;;;;;0.30;0.30;;;4.40;99.90;;;;;;5074470;28;20200;-70
2021/03/14 06:15:16;;;;;;;0.30;0.30;;;4.40;99.90;;;;;;5073987;28;20435;-69
2021/03/14 06:17:42;;;;;;;0.40;0.40;;;4.50;99.90;;;;;;5056549;28;20617;-69
2021/03/14 06:20:10;;;;;;;0.30;0.30;;;4.50;99.90;;;;;;5074612;28;20195;-69
2021/03/14 06:22:35;;;;;;;0.40;0.40;;;4.50;99.90;;;;;;5053268;28;20909;-68
2021/03/14 06:25:02;;;;;;;0.30;0.30;;;4.60;99.90;;;;;;5071805;28;20200;-69
2021/03/14 06:27:29;;;;;;;0.30;0.30;;;4.60;99.90;;;;;;5073528;28;20185;-70
2021/03/14 06:29:55;;;;;;;0.30;0.30;;;4.60;99.90;;;;;;5074268;28;20169;-70
2021/03/14 06:32:20;;;;;;;0.30;0.30;;;4.60;99.90;;;;;;5074246;28;20175;-69
2021/03/14 06:34:46;;;;;;;0.40;0.40;;;4.70;99.90;;;;;;5073231;28;20414;-69
2021/03/14 06:37:15;;;;;;;0.40;0.40;;;4.70;99.90;;;;;;5074050;28;20183;-69
2021/03/14 06:39:49;;;;;;;0.40;0.40;;;4.70;99.90;;;;;;5074221;28;20551;-69
2021/03/14 06:42:34;;;;;;;0.30;0.30;;;4.70;99.90;;;;;;5054960;28;20237;-70
2021/03/14 06:45:05;;;;;;;0.30;0.30;;;4.70;99.90;;;;;;5053520;28;20172;-70
2021/03/14 06:47:43;;;;;;;0.30;0.30;;;4.80;99.90;;;;;;5053831;28;20635;-71
2021/03/14 06:50:16;;;;;;;1.92;1.83;;;4.80;99.90;;;;;;5054074;28;20227;-70
2021/03/14 06:53:06;;;;;;;0.30;0.30;;;4.90;99.90;;;;;;5053981;28;20655;-70
2021/03/14 06:55:32;;;;;;;0.30;0.30;;;5.10;99.90;;;;;;5054238;28;20197;-69
2021/03/14 06:58:24;;;;;;;0.30;0.30;;;5.20;99.90;;;;;;5073589;28;20539;-72
2021/03/14 07:01:05;;;;;;;0.30;0.30;;;5.20;99.90;;;;;;5073637;28;20263;-70
2021/03/14 07:03:31;;;;;;;0.40;0.40;;;5.30;99.90;;;;;;5056024;28;20564;-68
2021/03/14 07:06:17;;;;;;;0.30;0.30;;;5.40;99.90;;;;;;5054728;28;20250;-69
2021/03/14 07:08:44;;;;;;;0.30;0.30;;;5.50;99.90;;;;;;5055677;28;20169;-69
2021/03/14 07:11:10;;;;;;;0.30;0.30;;;5.60;99.90;;;;;;5055605;28;20661;-70
2021/03/14 07:13:37;;;;;;;0.30;0.30;;;5.60;99.90;;;;;;5073695;28;20593;-74
2021/03/14 07:16:04;;;;;;;0.30;0.30;;;5.60;99.90;;;;;;5054868;28;20192;-74
2021/03/14 07:18:56;;;;;;;0.30;0.30;;;5.70;99.90;;;;;;5073715;28;20195;-74
2021/03/14 07:21:23;;;;;;;0.30;0.22;;;5.90;99.90;;;;;;5051093;28;20547;-73
2021/03/14 07:23:49;;;;;;;0.40;0.40;;;6.30;99.90;;;;;;5072768;28;20561;-72
2021/03/14 07:26:37;;;;;;;0.30;0.30;;;6.70;99.90;;;;;;5071276;28;20256;-76
2021/03/14 07:29:03;;;;;;;0.30;0.30;;;7.20;99.90;;;;;;5063119;28;20605;-72
2021/03/14 07:31:28;;;;;;;0.30;0.30;;;7.70;99.90;;;;;;5073908;28;20200;-76
2021/03/14 07:33:55;;;;;;;0.30;0.30;;;8.10;99.90;;;;;;5055166;28;20410;-75
2021/03/14 07:36:21;;;;;;;0.30;0.30;;;8.50;99.90;;;;;;5038449;28;20188;-77
2021/03/14 07:38:47;;;;;;;0.30;0.30;;;8.70;99.90;;;;;;5073327;28;20171;-71
2021/03/14 07:41:13;;;;;;;0.30;0.30;;;8.40;99.90;;;;;;5073039;28;20187;-71
2021/03/14 07:43:38;;;;;;;0.40;0.40;;;8.20;99.90;;;;;;5054910;28;20295;-72
2021/03/14 07:46:05;;;;;;;0.30;0.30;;;7.90;99.90;;;;;;5072714;28;20189;-71
2021/03/14 07:48:31;;;;;;;0.30;0.30;;;7.70;99.90;;;;;;5073360;28;20684;-68
2021/03/14 07:50:56;;;;;;;0.40;0.40;;;7.50;99.90;;;;;;5073294;28;20203;-69
2021/03/14 07:53:23;;;;;;;0.30;0.30;;;7.40;99.90;;;;;;5054855;28;20217;-67
2021/03/14 07:55:59;;;;;;;0.30;0.30;;;7.50;99.90;;;;;;5072625;28;20199;-68
2021/03/14 07:58:25;;;;;;;0.30;0.20;;;7.50;99.90;;;;;;5072817;28;20180;-67
2021/03/14 08:00:51;;;;;;;0.30;0.30;;;7.40;99.90;;;;;;5072896;28;20522;-68
2021/03/14 08:03:16;;;;;;;0.30;0.30;;;7.20;99.90;;;;;;5073051;28;20294;-68
2021/03/14 08:05:46;;;;;;;0.30;0.30;;;7.10;99.90;;;;;;5072404;28;20191;-68
2021/03/14 08:08:24;;;;;;;0.40;0.40;;;7.00;99.90;;;;;;5071103;28;20174;-67
2021/03/14 08:10:51;;;;;;;0.30;0.30;;;6.80;99.90;;;;;;5053271;28;20166;-69
2021/03/14 08:13:42;;;;;;;0.30;0.30;;;6.70;99.90;;;;;;5071366;28;20181;-68
2021/03/14 08:16:13;;;;;;;0.30;0.30;;;6.60;99.90;;;;;;5070191;28;20236;-67
2021/03/14 08:18:52;;;;;;;0.30;0.30;;;6.60;99.90;;;;;;5069685;28;20517;-68
2021/03/14 08:21:21;;;;;;;0.30;0.30;;;6.60;99.90;;;;;;5069524;28;20169;-68
2021/03/14 08:23:49;;;;;;;0.30;0.30;;;6.60;99.90;;;;;;5070924;28;20201;-67
2021/03/14 08:26:28;;;;;;;0.30;0.30;;;6.70;99.90;;;;;;5068673;28;20547;-69
2021/03/14 08:29:02;;;;;;;0.30;0.30;;;6.90;99.90;;;;;;5069001;28;20161;-66
2021/03/14 08:31:53;;;;;;;0.30;0.30;;;7.10;99.90;;;;;;5053413;28;20175;-67
2021/03/14 08:34:25;;;;;;;0.30;0.30;;;7.40;99.90;;;;;;5069176;28;20194;-67
2021/03/14 08:36:52;;;;;;;0.40;0.40;;;7.60;99.90;;;;;;5070972;28;20218;-67
2021/03/14 08:39:29;;;;;;;0.32;0.32;;;7.70;99.90;;;;;;5071106;28;20180;-66
2021/03/14 08:42:01;;;;;;;0.30;0.30;;;8.00;99.90;;;;;;5068640;28;20196;-68
2021/03/14 08:44:35;;;;;;;0.30;0.20;;;8.20;99.90;;;;;;5070762;28;20165;-66
2021/03/14 08:47:04;;;;;;;0.30;0.20;;;8.50;99.90;;;;;;5069529;28;20633;-66
2021/03/14 08:49:32;;;;;;;0.40;0.40;;;8.80;99.90;;;;;;5055935;28;20192;-66
2021/03/14 08:51:58;;;;;;;0.30;0.30;;;9.10;99.90;;;;;;5074426;28;20169;-66
2021/03/14 08:54:25;;;;;;;0.37;0.37;;;9.70;99.80;;;;;;5074385;28;20199;-68
2021/03/14 08:57:03;;;;;;;0.30;0.30;;;10.90;98.40;;;;;;5074523;28;20430;-65
2021/03/14 08:59:29;;;;;;;0.30;0.30;;;12.20;96.60;;;;;;5074560;28;20418;-66
2021/03/14 09:01:57;;;;;;;0.43;0.43;;;12.80;94.60;;;;;;5074249;28;20458;-66
2021/03/14 09:04:30;;;;;;;0.30;0.30;;;12.80;93.00;;;;;;5074132;28;20169;-66
2021/03/14 09:07:09;;;;;;;0.30;0.30;;;12.50;92.90;;;;;;5072098;28;20423;-67
2021/03/14 09:09:35;;;;;;;0.30;0.30;;;12.20;92.60;;;;;;5072454;28;20406;-66
2021/03/14 09:12:10;;;;;;;0.30;0.30;;;11.40;92.40;;;;;;5075415;28;20850;-68
2021/03/14 09:14:55;;;;;;;0.30;0.30;;;10.90;93.30;;;;;;5074471;28;20428;-68
2021/03/14 09:17:24;;;;;;;0.30;0.30;;;10.30;93.80;;;;;;5075759;28;20415;-69
2021/03/14 09:19:54;;;;;;;0.30;0.30;;;9.90;94.60;;;;;;5075695;28;20452;-67
2021/03/14 09:22:26;;;;;;;0.30;0.30;;;9.60;93.70;;;;;;5057772;28;20678;-69
2021/03/14 09:24:53;;;;;;;0.30;0.30;;;9.30;93.60;;;;;;5057037;28;20184;-67
2021/03/14 09:27:30;;;;;;;0.30;0.30;;;9.00;94.80;;;;;;5075563;28;20161;-68
2021/03/14 09:30:10;;;;;;;0.35;0.35;;;8.90;95.70;;;;;;5075331;28;20256;-65
2021/03/14 09:32:46;;;;;;;0.30;0.30;;;9.20;96.90;;;;;;5057296;28;20180;-66
2021/03/14 09:35:40;;;;;;;0.30;0.30;;;10.10;95.50;;;;;;5074670;28;20229;-69
2021/03/14 09:38:14;;;;;;;0.30;0.30;;;11.00;93.50;;;;;;5057492;28;20935;-66
2021/03/14 09:40:48;;;;;;;0.30;0.23;;;11.30;91.60;;;;;;5057494;28;20422;-68
2021/03/14 09:43:23;;;;;;;0.30;0.20;;;11.10;91.70;;;;;;5057193;28;20543;-69
2021/03/14 09:46:02;;;;;;;0.47;0.47;;;10.70;92.40;;;;;;5074773;28;20423;-72
2021/03/14 09:48:33;;;;;;;0.30;0.30;;;10.30;93.00;;;;;;5056882;28;20499;-70
2021/03/14 09:51:09;;;;;;;0.30;0.30;;;9.90;94.10;;;;;;5055047;28;20420;-70
2021/03/14 09:53:37;;;;;;;0.30;0.20;;;9.70;94.50;;;;;;5037315;28;20226;-69
2021/03/14 09:56:09;;;;;;;0.35;0.32;;;9.70;94.20;;;;;;5054406;28;20189;-69
2021/03/14 09:58:35;;;;;;;0.30;0.30;;;9.40;94.90;;;;;;5069682;28;20173;-70
2021/03/14 10:01:03;;;;;;;0.40;0.40;;;9.30;95.30;;;;;;5073822;28;20180;-72
2021/03/14 10:03:33;;;;;;;0.30;0.30;;;9.30;94.90;;;;;;5056719;28;20249;-71
2021/03/14 10:06:10;;;;;;;0.30;0.30;;;9.30;95.00;;;;;;5073951;28;20235;-71
2021/03/14 10:08:38;;;;;;;0.38;0.38;;;9.20;94.30;;;;;;5056430;28;20184;-71
2021/03/14 10:11:11;;;;;;;0.30;0.30;;;8.90;95.30;;;;;;5074670;28;20169;-71
2021/03/14 10:13:37;;;;;;;0.30;0.30;;;8.80;95.60;;;;;;5074378;28;20177;-69
2021/03/14 10:16:17;;;;;;;0.30;0.30;;;8.70;95.80;;;;;;5073978;28;20207;-72
2021/03/14 10:18:44;;;;;;;0.30;0.30;;;8.70;96.20;;;;;;5074616;28;20241;-69
2021/03/14 10:21:26;;;;;;;0.30;0.30;;;8.40;96.70;;;;;;5074097;28;20221;-68
2021/03/14 10:24:12;;;;;;;0.30;0.30;;;8.30;97.30;;;;;;5073705;28;20208;-69
2021/03/14 10:26:57;;;;;;;0.43;0.43;;;8.10;97.60;;;;;;5073968;28;20250;-70
2021/03/14 10:29:31;;;;;;;0.32;0.32;;;8.10;97.80;;;;;;5074462;28;20178;-71
2021/03/14 10:31:57;;;;;;;0.30;0.30;;;8.10;98.60;;;;;;5074073;28;20184;-69
2021/03/14 10:34:24;;;;;;;0.30;0.30;;;8.10;98.80;;;;;;5055904;28;20208;-70
2021/03/14 10:36:51;;;;;;;0.30;0.20;;;8.10;98.30;;;;;;5074286;28;20812;-73
2021/03/14 10:39:28;;;;;;;0.30;0.30;;;8.10;98.70;;;;;;5074509;28;20169;-71
2021/03/14 10:41:56;;;;;;;0.30;0.30;;;8.10;98.80;;;;;;5055457;28;20196;-73
2021/03/14 10:44:24;;;;;;;0.30;0.30;;;8.30;99.20;;;;;;5073464;28;20183;-71
2021/03/14 10:46:51;;;;;;;0.30;0.20;;;8.60;98.50;;;;;;5073955;28;20246;-70
2021/03/14 10:49:29;;;;;;;0.30;0.30;;;8.80;97.70;;;;;;5073664;28;20653;-69
2021/03/14 10:51:57;;;;;;;0.50;0.50;;;9.00;97.40;;;;;;5073850;28;20190;-69
2021/03/14 10:54:34;;;;;;;0.30;0.30;;;9.30;96.70;;;;;;5073320;28;20176;-69
2021/03/14 10:57:00;;;;;;;0.30;0.30;;;9.30;95.90;;;;;;5073380;28;20720;-70
2021/03/14 10:59:30;;;;;;;0.30;0.30;;;9.40;95.40;;;;;;5073687;28;20177;-68
2021/03/14 11:02:10;;;;;;;0.30;0.30;;;9.20;95.30;;;;;;5073539;28;20261;-67
2021/03/14 11:04:36;;;;;;;0.30;0.30;;;9.20;95.50;;;;;;5072797;28;20164;-68
2021/03/14 11:07:25;;;;;;;0.30;0.30;;;9.20;95.50;;;;;;5073306;28;20858;-70
2021/03/14 11:10:03;;;;;;;0.30;0.30;;;9.20;95.40;;;;;;5044347;28;20827;-71
2021/03/14 11:12:33;;;;;;;0.30;0.30;;;9.20;95.30;;;;;;5053275;28;20173;-70
2021/03/14 11:14:59;;;;;;;0.30;0.30;;;9.40;95.50;;;;;;5056929;28;20527;-74
2021/03/14 11:17:30;;;;;;;0.30;0.20;;;9.70;95.40;;;;;;5072173;28;20183;-70
2021/03/14 11:19:58;;;;;;;0.30;0.20;;;9.90;95.10;;;;;;5035964;28;20462;-73
2021/03/14 11:22:24;;;;;;;0.30;0.30;;;10.10;94.30;;;;;;5054453;28;20250;-72
2021/03/14 11:24:50;;;;;;;0.30;0.20;;;10.20;93.90;;;;;;5068597;28;20535;-69
2021/03/14 11:27:16;;;;;;;0.30;0.30;;;10.40;92.90;;;;;;5073037;28;20210;-72
2021/03/14 11:29:43;;;;;;;0.30;0.30;;;10.40;92.30;;;;;;5073554;28;20625;-72
2021/03/14 11:32:13;;;;;;;0.30;0.30;;;10.20;92.30;;;;;;5055108;28;20422;-69
2021/03/14 11:35:09;;;;;;;0.30;0.30;;;10.20;91.90;;;;;;5054921;28;20208;-71
2021/03/14 11:37:35;;;;;;;0.30;0.30;;;10.30;91.50;;;;;;5059460;28;20690;-73
2021/03/14 11:40:04;;;;;;;0.30;0.20;;;10.30;90.80;;;;;;5065680;28;20310;-70
2021/03/14 11:42:30;;;;;;;0.30;0.30;;;10.20;91.60;;;;;;5051575;28;20567;-75
2021/03/14 11:44:56;;;;;;;0.30;0.30;;;10.10;91.20;;;;;;5051450;28;20169;-73
2021/03/14 11:47:24;;;;;;;0.30;0.30;;;10.20;91.20;;;;;;5053754;28;20543;-71
2021/03/14 11:49:50;;;;;;;0.30;0.30;;;10.20;91.40;;;;;;5035613;28;20223;-72
2021/03/14 11:52:16;;;;;;;0.30;0.30;;;10.20;91.90;;;;;;5050322;28;20247;-74
2021/03/14 11:54:42;;;;;;;0.30;0.30;;;10.30;90.30;;;;;;5071651;28;20173;-69
2021/03/14 11:57:08;;;;;;;0.30;0.30;;;10.30;90.00;;;;;;5048017;28;20255;-70
2021/03/14 11:59:35;;;;;;;0.30;0.30;;;10.20;90.60;;;;;;5065671;28;20180;-72
2021/03/14 12:02:01;;;;;;;0.30;0.20;;;10.10;90.70;;;;;;5072666;28;20239;-76
2021/03/14 12:04:26;;;;;;;0.30;0.30;;;9.80;91.10;;;;;;5072211;28;20588;-79
2021/03/14 12:06:52;;;;;;;0.47;0.47;;;9.70;91.60;;;;;;5073010;28;20433;-76
2021/03/14 12:09:18;;;;;;;0.30;0.30;;;9.60;91.90;;;;;;5071928;28;20497;-72
2021/03/14 12:11:44;;;;;;;0.30;0.30;;;9.50;92.30;;;;;;5072842;28;20172;-72
2021/03/14 12:14:10;;;;;;;0.30;0.30;;;9.40;92.50;;;;;;5071846;28;20215;-69
2021/03/14 12:16:36;;;;;;;0.30;0.30;;;9.30;92.20;;;;;;5084438;28;20524;-73
2021/03/14 12:19:02;;;;;;;0.30;0.30;;;9.30;92.70;;;;;;5084256;28;20184;-73
2021/03/14 12:21:28;;;;;;;0.40;0.40;;;9.20;93.00;;;;;;5072401;28;20647;-72
2021/03/14 12:23:54;;;;;;;0.30;0.30;;;9.20;92.80;;;;;;5074357;28;20198;-68
2021/03/14 12:26:20;;;;;;;0.30;0.20;;;9.20;93.40;;;;;;5076118;28;20192;-73
2021/03/14 12:28:46;;;;;;;0.30;0.30;;;9.10;93.60;;;;;;5058117;28;20535;-68
2021/03/14 12:31:12;;;;;;;0.30;0.30;;;9.00;93.90;;;;;;5058299;28;20173;-74
2021/03/14 12:33:38;;;;;;;0.30;0.30;;;8.80;94.30;;;;;;5076233;28;20419;-67
2021/03/14 12:36:04;;;;;;;0.30;0.30;;;8.80;94.80;;;;;;5075649;28;20813;-72
2021/03/14 12:38:30;;;;;;;0.30;0.30;;;8.80;95.80;;;;;;5058495;28;20177;-70
2021/03/14 12:40:55;;;;;;;0.40;0.40;;;8.70;96.30;;;;;;5076374;28;20172;-68
2021/03/14 12:43:21;;;;;;;0.30;0.30;;;8.70;96.40;;;;;;5076231;28;20197;-69
2021/03/14 12:45:49;;;;;;;0.30;0.30;;;8.70;96.70;;;;;;5075795;28;20189;-70
2021/03/14 12:48:16;;;;;;;0.30;0.30;;;8.60;96.80;;;;;;5043395;28;20425;-73
2021/03/14 12:50:42;;;;;;;0.30;0.20;;;8.50;97.20;;;;;;5076373;28;20163;-70
2021/03/14 12:53:07;;;;;;;0.30;0.30;;;8.40;97.70;;;;;;5076380;28;20251;-68
2021/03/14 12:55:33;;;;;;;0.30;0.30;;;8.20;98.60;;;;;;5076500;28;20941;-71
2021/03/14 12:57:59;;;;;;;0.30;0.30;;;8.20;99.50;;;;;;5073311;28;20722;-69
2021/03/14 13:00:25;;;;;;;0.30;0.28;;;8.20;99.90;;;;;;5068421;28;20187;-70
2021/03/14 13:02:51;;;;;;;0.30;0.20;;;8.20;99.90;;;;;;5058422;28;20202;-67
2021/03/14 13:05:17;;;;;;;0.30;0.30;;;8.20;99.90;;;;;;5057856;28;20448;-71